createdAt,value
2019-04-01T00:00:31.666Z,48.75
2019-04-01T00:01:41.779Z,48.66
2019-04-01T00:02:51.888Z,48.66
2019-04-01T00:04:01.996Z,48.56
2019-04-01T00:05:12.103Z,48.46
2019-04-01T00:06:22.337Z,48.37
2019-04-01T00:07:32.447Z,48.37
2019-04-01T00:08:42.622Z,48.46
2019-04-01T00:09:52.734Z,48.66
2019-04-01T00:11:02.853Z,48.56
2019-04-01T00:12:12.956Z,48.66
2019-04-01T00:13:23.109Z,49.04
2019-04-01T00:14:33.398Z,48.94
2019-04-01T00:15:43.501Z,48.94
2019-04-01T00:16:53.604Z,49.13
2019-04-01T00:18:03.446Z,48.85
2019-04-01T00:19:13.547Z,49.04
2019-04-01T00:20:23.666Z,49.22
2019-04-01T00:21:33.803Z,49.13
2019-04-01T00:22:47.690Z,49.41
2019-04-01T00:23:58.508Z,49.13
2019-04-01T00:25:08.620Z,49.32
2019-04-01T00:26:18.736Z,49.51
2019-04-01T00:27:28.841Z,49.79
2019-04-01T00:28:38.961Z,49.51
2019-04-01T00:29:49.088Z,49.79
2019-04-01T00:30:59.196Z,49.7
2019-04-01T00:32:09.303Z,49.7
2019-04-01T00:33:19.527Z,49.89
2019-04-01T00:34:29.701Z,49.89
2019-04-01T00:35:39.848Z,49.6
2019-04-01T00:36:50.033Z,49.41
2019-04-01T00:38:00.212Z,49.7
2019-04-01T00:39:10.314Z,49.79
2019-04-01T00:40:20.411Z,49.89
2019-04-01T00:41:30.509Z,49.89
2019-04-01T00:42:40.372Z,49.89
2019-04-01T00:43:50.467Z,49.7
2019-04-01T00:45:00.659Z,49.7
2019-04-01T00:46:10.518Z,49.6
2019-04-01T00:47:20.625Z,49.7
2019-04-01T00:48:30.725Z,49.79
2019-04-01T00:49:40.835Z,49.51
2019-04-01T00:50:50.965Z,49.79
2019-04-01T00:52:01.101Z,49.89
2019-04-01T00:53:11.207Z,50.65
2019-04-01T00:54:23.393Z,50.43
2019-04-01T00:55:33.505Z,50.15
2019-04-01T00:56:43.626Z,50.05
2019-04-01T00:57:53.538Z,50.81
2019-04-01T00:59:03.641Z,50.72
2019-04-01T01:00:13.494Z,51.29
2019-04-01T01:01:23.602Z,51.01
2019-04-01T01:02:33.473Z,51.2
2019-04-01T01:03:43.573Z,51.01
2019-04-01T01:04:53.716Z,51.1
2019-04-01T01:06:03.829Z,51.2
2019-04-01T01:07:13.574Z,51.76
2019-04-01T01:08:23.693Z,52.24
2019-04-01T01:09:33.843Z,52.33
2019-04-01T01:10:44.281Z,52.24
2019-04-01T01:11:54.121Z,52.14
2019-04-01T01:13:03.985Z,51.95
2019-04-01T01:14:14.113Z,52.33
2019-04-01T01:15:24.249Z,52.33
2019-04-01T01:16:34.371Z,52.62
2019-04-01T01:17:44.513Z,52.53
2019-04-01T01:18:54.623Z,52.81
2019-04-01T01:20:04.719Z,52.62
2019-04-01T01:21:14.837Z,52.43
2019-04-01T01:22:24.671Z,53
2019-04-01T01:23:34.764Z,52.72
2019-04-01T01:24:44.862Z,52.62
2019-04-01T01:25:54.991Z,52.62
2019-04-01T01:27:05.113Z,52.62
2019-04-01T01:28:15.221Z,52.43
2019-04-01T01:29:25.334Z,52.53
2019-04-01T01:30:35.432Z,52.62
2019-04-01T01:31:45.537Z,52.87
2019-04-01T01:32:55.635Z,52.81
2019-04-01T01:34:05.731Z,52.91
2019-04-01T01:35:15.857Z,52.62
2019-04-01T01:36:25.954Z,52.78
2019-04-01T01:37:36.053Z,53.19
2019-04-01T01:38:46.184Z,53.47
2019-04-01T01:39:56.286Z,53.19
2019-04-01T01:41:06.401Z,53.95
2019-04-01T01:42:16.712Z,53.83
2019-04-01T01:43:26.815Z,53.92
2019-04-01T01:44:36.909Z,53.64
2019-04-01T01:45:47.018Z,54.21
2019-04-01T01:46:57.108Z,53.92
2019-04-01T01:48:07.210Z,54.49
2019-04-01T01:49:17.317Z,54.68
2019-04-01T01:50:27.488Z,54.78
2019-04-01T01:51:37.584Z,54.49
2019-04-01T01:52:47.684Z,54.58
2019-04-01T01:53:57.788Z,54.78
2019-04-01T01:55:07.922Z,54.58
2019-04-01T01:56:18.020Z,54.68
2019-04-01T01:57:27.860Z,54.68
2019-04-01T01:58:38.166Z,54.68
2019-04-01T01:59:48.273Z,54.78
2019-04-01T02:00:58.383Z,54.49
2019-04-01T02:02:08.488Z,54.21
2019-04-01T02:03:18.588Z,54.58
2019-04-01T02:04:28.710Z,54.58
2019-04-01T02:05:38.839Z,54.3
2019-04-01T02:06:48.950Z,54.58
2019-04-01T02:07:59.058Z,54.49
2019-04-01T02:09:09.159Z,54.39
2019-04-01T02:10:19.263Z,54.3
2019-04-01T02:11:29.580Z,54.78
2019-04-01T02:12:39.685Z,55.16
2019-04-01T02:13:49.787Z,54.87
2019-04-01T02:14:59.881Z,54.58
2019-04-01T02:16:10.013Z,55.06
2019-04-01T02:17:20.113Z,54.68
2019-04-01T02:18:30.248Z,54.58
2019-04-01T02:19:40.413Z,54.49
2019-04-01T02:20:50.524Z,54.68
2019-04-01T02:22:00.630Z,54.87
2019-04-01T02:23:10.759Z,55.16
2019-04-01T02:24:20.862Z,55.06
2019-04-01T02:25:30.971Z,55.63
2019-04-01T02:26:41.085Z,55.82
2019-04-01T02:27:51.241Z,55.91
2019-04-01T02:29:02.080Z,56.2
2019-04-01T02:30:11.956Z,56.01
2019-04-01T02:31:22.130Z,56.1
2019-04-01T02:32:32.268Z,56.49
2019-04-01T02:33:42.419Z,56.58
2019-04-01T02:34:52.588Z,56.87
2019-04-01T02:36:02.684Z,56.68
2019-04-01T02:37:12.819Z,56.87
2019-04-01T02:38:23.157Z,56.87
2019-04-01T02:39:33.283Z,56.58
2019-04-01T02:40:43.627Z,56.46
2019-04-01T02:41:53.754Z,56.65
2019-04-01T02:43:03.861Z,56.36
2019-04-01T02:44:13.972Z,56.74
2019-04-01T02:45:24.072Z,56.74
2019-04-01T02:46:34.183Z,56.87
2019-04-01T02:47:44.287Z,56.29
2019-04-01T02:48:54.413Z,56.01
2019-04-01T02:50:04.563Z,56.1
2019-04-01T02:51:14.740Z,55.91
2019-04-01T02:52:24.873Z,55.63
2019-04-01T02:53:35.205Z,55.44
2019-04-01T02:54:45.390Z,55.44
2019-04-01T02:55:55.586Z,55.16
2019-04-01T02:57:05.730Z,55.25
2019-04-01T02:58:15.868Z,55.16
2019-04-01T02:59:25.976Z,55.06
2019-04-01T03:00:36.076Z,54.97
2019-04-01T03:01:46.196Z,54.97
2019-04-01T03:02:56.306Z,54.78
2019-04-01T03:04:06.533Z,54.78
2019-04-01T03:05:16.674Z,54.97
2019-04-01T03:06:26.791Z,55.16
2019-04-01T03:07:37.033Z,55.16
2019-04-01T03:08:47.139Z,54.97
2019-04-01T03:09:56.896Z,55.25
2019-04-01T03:11:10.142Z,55.06
2019-04-01T03:12:20.965Z,54.78
2019-04-01T03:13:31.122Z,54.78
2019-04-01T03:14:41.231Z,54.97
2019-04-01T03:15:51.358Z,54.78
2019-04-01T03:17:01.468Z,54.66
2019-04-01T03:18:11.571Z,54.75
2019-04-01T03:19:21.725Z,55.13
2019-04-01T03:20:31.957Z,55.51
2019-04-01T03:21:42.070Z,55.89
2019-04-01T03:22:51.955Z,55.41
2019-04-01T03:24:01.727Z,55.6
2019-04-01T03:25:11.833Z,55.79
2019-04-01T03:26:21.745Z,55.79
2019-04-01T03:27:31.855Z,55.51
2019-04-01T03:28:41.990Z,55.7
2019-04-01T03:29:52.132Z,55.7
2019-04-01T03:31:02.256Z,55.7
2019-04-01T03:32:12.388Z,56.08
2019-04-01T03:33:22.642Z,56.08
2019-04-01T03:34:32.795Z,56.08
2019-04-01T03:35:43.104Z,56.27
2019-04-01T03:36:53.234Z,56.84
2019-04-01T03:38:03.472Z,56.84
2019-04-01T03:39:13.589Z,56.84
2019-04-01T03:40:23.721Z,56.74
2019-04-01T03:41:33.836Z,56.84
2019-04-01T03:42:44.150Z,57.12
2019-04-01T03:43:54.275Z,57.69
2019-04-01T03:45:04.508Z,57.59
2019-04-01T03:46:14.836Z,57.69
2019-04-01T03:47:25.158Z,57.79
2019-04-01T03:48:35.268Z,57.79
2019-04-01T03:49:45.379Z,58.07
2019-04-01T03:50:55.504Z,58.26
2019-04-01T03:52:09.933Z,58.07
2019-04-01T03:53:20.339Z,57.98
2019-04-01T03:54:30.524Z,57.69
2019-04-01T03:55:40.646Z,58.36
2019-04-01T03:56:50.758Z,58.36
2019-04-01T03:58:00.977Z,58.45
2019-04-01T03:59:11.117Z,58.89
2019-04-01T04:00:21.319Z,58.8
2019-04-01T04:01:33.113Z,58.8
2019-04-01T04:02:43.235Z,58.42
2019-04-01T04:03:53.349Z,58.17
2019-04-01T04:05:03.282Z,58.73
2019-04-01T04:06:13.402Z,58.73
2019-04-01T04:07:23.515Z,58.73
2019-04-01T04:08:33.619Z,58.54
2019-04-01T04:09:43.755Z,58.54
2019-04-01T04:10:53.862Z,58.36
2019-04-01T04:12:03.980Z,58.64
2019-04-01T04:13:14.101Z,58.54
2019-04-01T04:14:24.223Z,59.02
2019-04-01T04:15:34.340Z,58.7
2019-04-01T04:16:44.360Z,58.54
2019-04-01T04:17:54.615Z,58.36
2019-04-01T04:19:04.773Z,58.45
2019-04-01T04:20:14.915Z,58.42
2019-04-01T04:21:26.785Z,58.61
2019-04-01T04:22:36.647Z,58.89
2019-04-01T04:23:46.975Z,58.8
2019-04-01T04:24:57.110Z,59.18
2019-04-01T04:26:07.228Z,58.8
2019-04-01T04:27:17.376Z,58.89
2019-04-01T04:28:27.495Z,58.89
2019-04-01T04:29:37.636Z,58.99
2019-04-01T04:30:47.766Z,59.08
2019-04-01T04:31:57.662Z,58.99
2019-04-01T04:33:07.765Z,58.8
2019-04-01T04:34:17.637Z,59.56
2019-04-01T04:35:27.741Z,59.27
2019-04-01T04:36:36.984Z,59.27
2019-04-01T04:37:47.114Z,59.08
2019-04-01T04:38:57.227Z,59.66
2019-04-01T04:40:07.341Z,59.56
2019-04-01T04:41:17.462Z,59.46
2019-04-01T04:42:27.571Z,59.56
2019-04-01T04:43:37.693Z,59.94
2019-04-01T04:44:47.805Z,59.75
2019-04-01T04:45:57.907Z,59.46
2019-04-01T04:47:08.240Z,59.84
2019-04-01T04:48:18.093Z,59.84
2019-04-01T04:49:28.220Z,59.75
2019-04-01T04:50:38.321Z,59.94
2019-04-01T04:51:48.416Z,59.94
2019-04-01T04:52:58.529Z,60.22
2019-04-01T04:54:08.646Z,60.41
2019-04-01T04:55:18.755Z,60.89
2019-04-01T04:56:28.846Z,60.6
2019-04-01T04:57:38.979Z,61.08
2019-04-01T04:58:49.079Z,60.7
2019-04-01T04:59:58.943Z,60.89
2019-04-01T05:01:09.075Z,60.98
2019-04-01T05:02:19.206Z,60.98
2019-04-01T05:03:32.489Z,61.27
2019-04-01T05:04:42.619Z,60.98
2019-04-01T05:05:52.724Z,61.08
2019-04-01T05:07:02.509Z,60.7
2019-04-01T05:08:12.605Z,60.89
2019-04-01T05:09:22.729Z,60.7
2019-04-01T05:10:32.856Z,60.98
2019-04-01T05:11:42.977Z,60.31
2019-04-01T05:12:53.094Z,60.5
2019-04-01T05:14:03.204Z,60.31
2019-04-01T05:15:13.321Z,60.41
2019-04-01T05:16:23.428Z,60.6
2019-04-01T05:17:33.533Z,60.79
2019-04-01T05:18:43.649Z,60.7
2019-04-01T05:19:53.756Z,60.5
2019-04-01T05:21:03.865Z,60.31
2019-04-01T05:22:13.996Z,60.5
2019-04-01T05:23:24.113Z,60.13
2019-04-01T05:24:34.224Z,59.75
2019-04-01T05:25:44.326Z,59.94
2019-04-01T05:26:54.433Z,59.75
2019-04-01T05:28:04.558Z,59.75
2019-04-01T05:29:14.893Z,59.66
2019-04-01T05:30:25.013Z,60.03
2019-04-01T05:31:35.115Z,60.13
2019-04-01T05:32:45.221Z,59.68
2019-04-01T05:33:58.287Z,59.49
2019-04-01T05:35:08.403Z,60.06
2019-04-01T05:36:18.518Z,59.97
2019-04-01T05:37:28.301Z,59.59
2019-04-01T05:38:38.402Z,59.59
2019-04-01T05:39:48.702Z,59.97
2019-04-01T05:40:58.558Z,59.11
2019-04-01T05:42:08.434Z,59.59
2019-04-01T05:43:18.544Z,59.78
2019-04-01T05:44:28.668Z,59.21
2019-04-01T05:45:38.771Z,58.64
2019-04-01T05:46:48.873Z,58.64
2019-04-01T05:47:58.970Z,58.26
2019-04-01T05:49:09.085Z,58.26
2019-04-01T05:50:19.234Z,58.45
2019-04-01T05:51:29.354Z,58.26
2019-04-01T05:52:39.468Z,57.69
2019-04-01T05:53:49.613Z,57.98
2019-04-01T05:54:59.717Z,57.88
2019-04-01T05:56:12.003Z,57.91
2019-04-01T05:57:22.117Z,57.24
2019-04-01T05:58:32.205Z,56.96
2019-04-01T05:59:42.335Z,56.68
2019-04-01T06:00:52.432Z,56.58
2019-04-01T06:02:02.559Z,56.2
2019-04-01T06:03:12.667Z,56.2
2019-04-01T06:04:22.781Z,56.01
2019-04-01T06:05:32.965Z,55.82
2019-04-01T06:06:43.078Z,56.29
2019-04-01T06:07:56.637Z,56.2
2019-04-01T06:09:06.734Z,56.29
2019-04-01T06:10:16.838Z,56.01
2019-04-01T06:11:26.977Z,55.35
2019-04-01T06:12:36.721Z,55.06
2019-04-01T06:13:46.823Z,55.63
2019-04-01T06:14:56.939Z,55.25
2019-04-01T06:16:07.042Z,55.25
2019-04-01T06:17:16.794Z,55.06
2019-04-01T06:18:26.904Z,54.78
2019-04-01T06:19:37.063Z,54.78
2019-04-01T06:20:47.201Z,54.78
2019-04-01T06:21:57.319Z,54.21
2019-04-01T06:23:07.425Z,53.92
2019-04-01T06:24:17.644Z,54.21
2019-04-01T06:25:30.133Z,54.21
2019-04-01T06:26:40.252Z,53.92
2019-04-01T06:27:50.366Z,54.02
2019-04-01T06:29:00.472Z,54.11
2019-04-01T06:30:10.647Z,54.21
2019-04-01T06:31:20.756Z,54.11
2019-04-01T06:32:30.888Z,54.11
2019-04-01T06:33:41.056Z,53.92
2019-04-01T06:34:55.633Z,53.54
2019-04-01T06:36:05.789Z,53.64
2019-04-01T06:37:16.064Z,53.35
2019-04-01T06:38:26.181Z,53.54
2019-04-01T06:39:36.309Z,53.07
2019-04-01T06:40:46.433Z,53.07
2019-04-01T06:41:56.541Z,52.87
2019-04-01T06:43:10.238Z,52.59
2019-04-01T06:44:20.349Z,52.97
2019-04-01T06:45:30.468Z,52.97
2019-04-01T06:46:40.566Z,52.97
2019-04-01T06:47:50.422Z,52.59
2019-04-01T06:49:00.633Z,52.59
2019-04-01T06:50:10.787Z,52.22
2019-04-01T06:51:20.896Z,52.31
2019-04-01T06:52:31.013Z,52.5
2019-04-01T06:53:41.109Z,52.12
2019-04-01T06:54:51.217Z,52.33
2019-04-01T06:56:01.339Z,52.24
2019-04-01T06:57:11.486Z,52.02
2019-04-01T06:58:21.606Z,52.02
2019-04-01T06:59:31.725Z,52.22
2019-04-01T07:00:41.860Z,51.74
2019-04-01T07:01:51.984Z,51.93
2019-04-01T07:03:02.078Z,51.55
2019-04-01T07:04:12.186Z,51.64
2019-04-01T07:05:22.289Z,51.93
2019-04-01T07:06:32.395Z,51.64
2019-04-01T07:07:42.598Z,51.83
2019-04-01T07:08:52.700Z,51.83
2019-04-01T07:10:02.913Z,51.64
2019-04-01T07:11:12.878Z,51.83
2019-04-01T07:12:23.092Z,51.64
2019-04-01T07:13:33.229Z,51.83
2019-04-01T07:14:45.474Z,51.55
2019-04-01T07:15:55.606Z,51.45
2019-04-01T07:17:20.205Z,51.2
2019-04-01T07:18:30.387Z,51.67
2019-04-01T07:19:40.494Z,51.67
2019-04-01T07:20:50.630Z,51.39
2019-04-01T07:22:00.735Z,51.39
2019-04-01T07:23:10.853Z,50.91
2019-04-01T07:24:20.963Z,50.72
2019-04-01T07:25:33.899Z,50.91
2019-04-01T07:26:44.267Z,51.48
2019-04-01T07:27:54.385Z,50.91
2019-04-01T07:29:04.508Z,51.1
2019-04-01T07:30:14.630Z,51.1
2019-04-01T07:31:24.753Z,51.29
2019-04-01T07:32:34.924Z,50.72
2019-04-01T07:33:45.021Z,51.01
2019-04-01T07:34:55.150Z,50.91
2019-04-01T07:36:05.264Z,51.29
2019-04-01T07:37:15.410Z,51.76
2019-04-01T07:38:25.520Z,51.67
2019-04-01T07:39:35.640Z,51.86
2019-04-01T07:40:45.734Z,52.24
2019-04-01T07:41:55.916Z,52.14
2019-04-01T07:43:06.035Z,52.14
2019-04-01T07:44:18.056Z,52.24
2019-04-01T07:45:28.152Z,52.62
2019-04-01T07:46:38.260Z,52.05
2019-04-01T07:47:51.460Z,51.86
2019-04-01T07:49:01.963Z,52.05
2019-04-01T07:50:14.873Z,51.89
2019-04-01T07:51:25.103Z,51.7
2019-04-01T07:52:35.244Z,51.79
2019-04-01T07:53:45.356Z,51.6
2019-04-01T07:54:55.466Z,51.72
2019-04-01T07:56:05.875Z,50.77
2019-04-01T07:57:15.973Z,50.48
2019-04-01T07:58:26.090Z,50.48
2019-04-01T07:59:36.192Z,50.2
2019-04-01T08:00:45.947Z,49.75
2019-04-01T08:01:56.066Z,49.37
2019-04-01T08:03:06.374Z,49.65
2019-04-01T08:04:16.485Z,49.4
2019-04-01T08:05:28.624Z,48.66
2019-04-01T08:06:38.743Z,47.85
2019-04-01T08:07:48.623Z,45.99
2019-04-01T08:08:58.736Z,44.89
2019-04-01T08:10:08.856Z,43.02
2019-04-01T08:11:18.999Z,42.37
2019-04-01T08:12:30.540Z,41.05
2019-04-01T08:13:40.644Z,39.06
2019-04-01T08:14:50.754Z,38.2
2019-04-01T08:16:00.873Z,37.16
2019-04-01T08:17:10.751Z,36.88
2019-04-01T08:18:20.875Z,36.42
2019-04-01T08:19:31.011Z,35.65
2019-04-01T08:20:41.111Z,35.65
2019-04-01T08:21:54.683Z,35
2019-04-01T08:23:04.836Z,34.9
2019-04-01T08:24:14.950Z,34.81
2019-04-01T08:25:25.076Z,34.73
2019-04-01T08:26:35.209Z,35.02
2019-04-01T08:27:45.314Z,33.99
2019-04-01T08:28:55.499Z,32.18
2019-04-01T08:30:05.625Z,32.01
2019-04-01T08:31:16.076Z,30.08
2019-04-01T08:32:26.200Z,29.99
2019-04-01T08:33:36.386Z,29.79
2019-04-01T08:34:46.721Z,29.88
2019-04-01T08:35:56.831Z,29.67
2019-04-01T08:37:06.961Z,29.77
2019-04-01T08:39:29.891Z,29.67
2019-04-01T08:40:40.984Z,29.28
2019-04-01T08:41:53.771Z,29.19
2019-04-01T08:43:04.723Z,29.11
2019-04-01T08:44:17.406Z,28.44
2019-04-01T08:46:41.182Z,29.13
2019-04-01T08:49:07.887Z,28.16
